Time;durP1;ratioP1;P1;durP2;ratioP2;P2;SDS_P1;SDS_P2;PMS_P1;PMS_P2;Temp;Humidity;BMP_temperature;BMP_pressure;BME280_temperature;BME280_humidity;BME280_pressure;Samples;Min_cycle;Max_cycle;Signal;HPM_P1;HPM_P2
2022/10/24 00:00:51;;;;;;;17.02;11.93;;;;;;;11.29;88.15;98591.02;1702177;84;25623;-64
2022/10/24 00:03:17;;;;;;;16.87;10.13;;;;;;;11.34;88.03;98588.09;1701335;84;25726;-64
2022/10/24 00:05:46;;;;;;;16.80;10.15;;;;;;;11.37;88.30;98572.95;1699717;84;25622;-65
2022/10/24 00:08:13;;;;;;;16.17;10.40;;;;;;;11.40;88.56;98570.35;1687684;84;27423;-65
2022/10/24 00:10:46;;;;;;;17.10;10.23;;;;;;;11.40;88.34;98566.82;1687867;84;25671;-65
2022/10/24 00:13:14;;;;;;;15.25;9.10;;;;;;;11.41;88.30;98554.16;1687807;84;25694;-64
2022/10/24 00:15:47;;;;;;;13.90;9.25;;;;;;;11.42;88.24;98557.12;1687968;84;25799;-64
2022/10/24 00:18:13;;;;;;;13.80;8.75;;;;;;;11.42;88.31;98553.57;1687278;84;25620;-65
2022/10/24 00:20:41;;;;;;;16.23;10.40;;;;;;;11.41;88.48;98552.78;1684977;85;27960;-64
2022/10/24 00:23:08;;;;;;;17.20;11.18;;;;;;;11.46;88.23;98556.48;1687568;84;25675;-65
2022/10/24 00:25:35;;;;;;;21.35;13.40;;;;;;;11.51;87.98;98575.52;1687821;84;25706;-65
2022/10/24 00:28:01;;;;;;;18.67;12.23;;;;;;;11.53;87.86;98573.27;1687785;84;25687;-65
2022/10/24 00:30:27;;;;;;;19.07;11.88;;;;;;;11.57;87.84;98575.60;1687770;84;25598;-65
2022/10/24 00:32:54;;;;;;;15.83;10.68;;;;;;;11.60;87.76;98573.59;1688021;84;27309;-64
2022/10/24 00:35:20;;;;;;;22.98;14.47;;;;;;;11.63;87.78;98573.53;1687514;84;25735;-64
2022/10/24 00:37:47;;;;;;;16.12;10.75;;;;;;;11.69;87.89;98578.28;1687981;84;25616;-65
2022/10/24 00:40:17;;;;;;;20.45;10.58;;;;;;;11.74;87.92;98569.87;1687940;85;26555;-64
2022/10/24 00:42:44;;;;;;;13.40;9.43;;;;;;;11.80;87.89;98572.14;1687789;85;25489;-64
2022/10/24 00:45:42;;;;;;;14.75;9.75;;;;;;;11.86;87.81;98570.61;1687715;85;27478;-64
2022/10/24 00:48:34;;;;;;;15.43;9.70;;;;;;;11.88;87.80;98572.45;1685275;85;25674;-65
2022/10/24 00:51:05;;;;;;;16.35;11.20;;;;;;;11.91;87.81;98573.17;1687238;85;25553;-64
2022/10/24 00:53:37;;;;;;;17.27;11.18;;;;;;;11.90;87.79;98581.99;1687780;84;26631;-64
2022/10/24 00:56:05;;;;;;;17.35;11.10;;;;;;;11.89;87.84;98576.83;1687973;85;25426;-65
2022/10/24 00:58:34;;;;;;;17.20;11.38;;;;;;;11.89;87.78;98578.20;1687959;84;27443;-64
2022/10/24 01:01:01;;;;;;;28.42;14.83;;;;;;;11.88;87.68;98572.45;1687531;85;25706;-64
2022/10/24 01:03:27;;;;;;;19.25;11.40;;;;;;;11.85;87.75;98578.59;1687670;85;25686;-64
2022/10/24 01:06:29;;;;;;;19.25;10.98;;;;;;;11.86;87.65;98569.23;1688248;84;26365;-64
2022/10/24 01:09:16;;;;;;;25.40;14.25;;;;;;;11.88;87.73;98566.95;1697235;84;25382;-64
2022/10/24 01:11:57;;;;;;;17.95;10.15;;;;;;;11.90;87.66;98562.77;1696324;84;28504;-64
2022/10/24 01:14:44;;;;;;;14.70;10.23;;;;;;;11.87;87.85;98548.88;1697034;83;25805;-64
2022/10/24 01:17:31;;;;;;;16.85;10.88;;;;;;;11.88;87.85;98554.05;1697053;83;25610;-64
2022/10/24 01:20:11;;;;;;;15.72;10.32;;;;;;;11.90;87.61;98563.33;1694891;84;25725;-64
2022/10/24 01:22:46;;;;;;;14.23;9.55;;;;;;;11.92;87.61;98559.70;1692404;84;25678;-64
2022/10/24 01:25:34;;;;;;;14.65;8.70;;;;;;;11.94;87.69;98554.67;1696900;84;27383;-63
2022/10/24 01:28:06;;;;;;;15.35;8.80;;;;;;;11.93;88.10;98544.83;1696626;84;25656;-63
2022/10/24 01:30:37;;;;;;;12.53;8.55;;;;;;;11.90;88.09;98542.17;1696577;84;25504;-63
2022/10/24 01:33:27;;;;;;;15.13;10.13;;;;;;;11.90;88.05;98553.16;1696216;84;25677;-63
2022/10/24 01:36:11;;;;;;;15.98;9.10;;;;;;;11.88;87.97;98554.05;1696689;83;25643;-63
2022/10/24 01:38:48;;;;;;;14.90;9.08;;;;;;;11.85;88.17;98547.83;1695755;84;29611;-63
2022/10/24 01:41:19;;;;;;;14.35;8.60;;;;;;;11.84;88.24;98540.73;1695837;84;25651;-63
2022/10/24 01:44:09;;;;;;;14.23;9.05;;;;;;;11.84;88.06;98539.36;1696695;83;25690;-63
2022/10/24 01:46:40;;;;;;;12.28;8.45;;;;;;;11.86;88.26;98530.80;1696607;84;25694;-63
2022/10/24 01:49:12;;;;;;;11.25;8.13;;;;;;;11.86;88.17;98527.47;1696958;83;25678;-63
2022/10/24 01:51:40;;;;;;;14.53;9.08;;;;;;;11.87;88.23;98524.98;1696115;84;27495;-63
2022/10/24 01:54:09;;;;;;;14.03;8.55;;;;;;;11.90;88.26;98527.63;1696793;83;25739;-63
2022/10/24 01:56:35;;;;;;;13.45;8.45;;;;;;;11.91;88.34;98531.98;1696669;83;25674;-63
2022/10/24 01:59:30;;;;;;;14.15;7.97;;;;;;;11.91;88.45;98525.94;1696881;84;25698;-63
2022/10/24 02:02:14;;;;;;;10.95;7.60;;;;;;;11.95;88.38;98532.97;1697128;83;25631;-63
2022/10/24 02:04:45;;;;;;;12.90;8.25;;;;;;;12.01;88.45;98545.36;1696885;83;28252;-62
2022/10/24 02:07:14;;;;;;;15.00;8.55;;;;;;;12.02;88.10;98546.18;1692562;82;25418;-62
2022/10/24 02:09:43;;;;;;;12.30;8.10;;;;;;;12.05;88.20;98550.47;1688020;84;25644;-62
2022/10/24 02:12:13;;;;;;;11.60;7.87;;;;;;;12.06;88.04;98558.12;1687800;84;25690;-62
2022/10/24 02:14:49;;;;;;;13.38;8.53;;;;;;;12.04;88.02;98563.94;1687850;84;25626;-63
2022/10/24 02:17:17;;;;;;;13.65;8.73;;;;;;;12.00;88.40;98556.70;1687753;85;27395;-62
2022/10/24 02:19:44;;;;;;;13.65;8.93;;;;;;;12.03;88.57;98547.78;1687671;84;25696;-62
2022/10/24 02:22:24;;;;;;;12.73;8.23;;;;;;;12.08;88.64;98546.28;1688091;84;25622;-62
2022/10/24 02:25:11;;;;;;;11.50;8.23;;;;;;;12.13;88.51;98532.38;1688121;84;25662;-63
2022/10/24 02:27:58;;;;;;;15.18;9.18;;;;;;;12.16;88.10;98529.55;1684532;85;25610;-62
2022/10/24 02:30:27;;;;;;;11.95;8.90;;;;;;;12.12;88.02;98525.26;1687556;85;27399;-65
2022/10/24 02:32:57;;;;;;;24.25;8.98;;;;;;;12.15;88.40;98521.86;1687794;84;25914;-65
2022/10/24 02:35:28;;;;;;;14.50;8.78;;;;;;;12.22;88.39;98542.53;1688257;84;25659;-65
2022/10/24 02:38:09;;;;;;;18.62;12.13;;;;;;;12.26;88.36;98538.01;1687723;84;25751;-65
2022/10/24 02:40:36;;;;;;;15.85;11.03;;;;;;;12.36;88.24;98532.70;1688505;84;25770;-65
2022/10/24 02:43:05;;;;;;;16.95;11.83;;;;;;;12.43;88.03;98530.25;1688026;84;27620;-65
2022/10/24 02:45:33;;;;;;;16.52;11.22;;;;;;;12.46;87.79;98539.21;1688068;84;25669;-65
2022/10/24 02:48:04;;;;;;;14.87;9.93;;;;;;;12.46;87.43;98552.17;1687837;84;25631;-65
2022/10/24 02:50:32;;;;;;;15.20;11.45;;;;;;;12.33;87.48;98540.23;1688143;84;25722;-65
2022/10/24 02:52:58;;;;;;;14.65;10.28;;;;;;;12.33;87.86;98545.73;1688061;84;25481;-65
2022/10/24 02:55:24;;;;;;;15.18;10.30;;;;;;;12.33;87.95;98558.09;1684192;83;28187;-65
2022/10/24 02:57:50;;;;;;;15.65;10.98;;;;;;;12.33;87.64;98554.79;1687977;84;25772;-65
2022/10/24 03:00:17;;;;;;;15.03;10.50;;;;;;;12.34;87.83;98564.64;1688006;84;25517;-65
2022/10/24 03:02:44;;;;;;;13.58;9.78;;;;;;;12.31;87.59;98561.17;1687897;84;25704;-65
2022/10/24 03:05:10;;;;;;;19.40;12.28;;;;;;;12.31;87.66;98563.91;1687839;84;25442;-65
2022/10/24 03:07:36;;;;;;;16.35;11.60;;;;;;;12.34;87.89;98561.89;1691779;84;28508;-65
2022/10/24 03:10:03;;;;;;;16.52;10.38;;;;;;;12.37;87.87;98559.05;1696866;84;25658;-65
2022/10/24 03:12:29;;;;;;;13.03;8.25;;;;;;;12.38;87.95;98549.09;1697179;84;25678;-65
2022/10/24 03:14:56;;;;;;;11.53;8.43;;;;;;;12.39;88.58;98558.16;1696508;83;25741;-65
2022/10/24 03:17:22;;;;;;;11.35;7.12;;;;;;;12.39;88.65;98546.61;1697038;84;25619;-66
2022/10/24 03:19:48;;;;;;;10.80;8.28;;;;;;;12.38;89.09;98548.31;1697009;84;28294;-66
2022/10/24 03:22:14;;;;;;;11.95;8.30;;;;;;;12.39;88.84;98557.60;1696936;84;25679;-65
2022/10/24 03:24:40;;;;;;;12.43;8.70;;;;;;;12.43;88.75;98549.48;1696825;83;25451;-65
2022/10/24 03:27:07;;;;;;;14.38;7.97;;;;;;;12.45;88.62;98548.60;1696681;84;25579;-65
2022/10/24 03:29:33;;;;;;;14.65;8.68;;;;;;;12.49;88.45;98552.88;1696735;84;25469;-65
2022/10/24 03:31:59;;;;;;;12.73;8.75;;;;;;;12.51;88.40;98552.78;1697096;83;27615;-65
2022/10/24 03:34:25;;;;;;;12.75;8.73;;;;;;;12.55;88.32;98550.98;1696661;84;25698;-65
2022/10/24 03:36:52;;;;;;;12.37;8.23;;;;;;;12.58;88.31;98547.34;1697022;83;25606;-65
2022/10/24 03:39:18;;;;;;;11.68;8.30;;;;;;;12.59;88.33;98543.45;1696592;84;25804;-65
2022/10/24 03:41:44;;;;;;;10.03;7.50;;;;;;;12.58;88.40;98545.97;1696997;83;25671;-65
2022/10/24 03:44:11;;;;;;;9.90;6.37;;;;;;;12.58;88.60;98539.88;1696983;83;27632;-65
2022/10/24 03:46:37;;;;;;;9.60;6.45;;;;;;;12.54;88.94;98531.51;1697092;84;25681;-65
2022/10/24 03:49:03;;;;;;;11.63;6.75;;;;;;;12.54;89.25;98518.33;1697172;84;25479;-65
2022/10/24 03:51:29;;;;;;;11.38;8.15;;;;;;;12.52;89.63;98516.50;1696719;84;25805;-65
2022/10/24 03:53:55;;;;;;;12.47;7.75;;;;;;;12.50;89.53;98516.83;1696957;84;25742;-65
2022/10/24 03:56:22;;;;;;;9.75;7.28;;;;;;;12.53;89.57;98519.47;1696927;83;28267;-65
2022/10/24 03:58:48;;;;;;;10.80;7.58;;;;;;;12.54;89.49;98518.33;1696895;83;25638;-65
2022/10/24 04:01:27;;;;;;;12.40;8.25;;;;;;;12.59;89.46;98529.70;1696895;84;25719;-65
2022/10/24 04:03:54;;;;;;;15.08;8.38;;;;;;;12.62;89.11;98538.66;1696956;83;25806;-65
2022/10/24 04:06:20;;;;;;;10.48;6.78;;;;;;;12.65;89.08;98535.26;1696780;84;25542;-65
2022/10/24 04:08:46;;;;;;;9.10;6.83;;;;;;;12.67;89.42;98550.28;1689618;83;27486;-65
2022/10/24 04:11:12;;;;;;;12.05;7.92;;;;;;;12.71;89.32;98557.31;1687520;85;27213;-63
2022/10/24 04:13:39;;;;;;;10.78;7.30;;;;;;;12.74;89.00;98551.15;1687684;84;25473;-63
2022/10/24 04:16:07;;;;;;;15.08;7.15;;;;;;;12.76;88.84;98557.13;1687930;84;25777;-63
2022/10/24 04:18:33;;;;;;;9.68;6.22;;;;;;;12.75;88.97;98545.87;1687936;85;25434;-64
2022/10/24 04:21:00;;;;;;;9.20;5.95;;;;;;;12.72;89.37;98534.16;1687603;85;27453;-65
2022/10/24 04:23:26;;;;;;;10.93;7.22;;;;;;;12.69;89.68;98520.30;1687764;85;25603;-65
2022/10/24 04:25:53;;;;;;;9.38;7.08;;;;;;;12.71;89.30;98517.44;1687673;85;25509;-64
2022/10/24 04:28:19;;;;;;;11.75;7.15;;;;;;;12.72;89.47;98511.38;1688053;85;25758;-64
2022/10/24 04:30:46;;;;;;;9.70;6.92;;;;;;;12.75;89.13;98519.75;1687657;85;25615;-65
2022/10/24 04:33:13;;;;;;;18.62;7.95;;;;;;;12.77;89.20;98516.12;1687711;84;27671;-63
2022/10/24 04:35:39;;;;;;;11.45;6.83;;;;;;;12.80;88.88;98520.95;1687557;84;25627;-63
2022/10/24 04:38:14;;;;;;;13.70;7.10;;;;;;;12.85;89.00;98529.58;1687930;84;25662;-63
2022/10/24 04:40:41;;;;;;;9.15;6.60;;;;;;;12.90;88.77;98529.96;1687873;85;26540;-63
2022/10/24 04:43:15;;;;;;;11.08;6.70;;;;;;;12.91;88.82;98517.25;1658235;85;25580;-63
2022/10/24 04:45:46;;;;;;;10.98;7.42;;;;;;;12.93;88.48;98538.34;1687753;84;27430;-63
2022/10/24 04:48:15;;;;;;;10.50;6.87;;;;;;;12.97;88.35;98547.30;1688123;85;25644;-63
2022/10/24 04:50:43;;;;;;;10.10;6.37;;;;;;;12.98;88.34;98546.18;1683738;84;25663;-63
2022/10/24 04:53:09;;;;;;;11.90;6.60;;;;;;;12.97;88.46;98539.05;1687879;84;25905;-63
2022/10/24 04:55:36;;;;;;;10.68;7.03;;;;;;;12.93;88.72;98536.17;1687556;84;25810;-63
2022/10/24 04:58:03;;;;;;;10.82;6.42;;;;;;;12.91;88.56;98531.56;1687590;85;27524;-63
2022/10/24 05:00:30;;;;;;;12.18;9.03;;;;;;;12.88;89.03;98526.73;1687782;85;25713;-63
2022/10/24 05:02:56;;;;;;;15.18;9.05;;;;;;;12.89;88.76;98524.20;1687870;84;25631;-63
2022/10/24 05:05:23;;;;;;;14.28;8.93;;;;;;;12.90;88.85;98520.34;1687948;84;25782;-63
2022/10/24 05:07:49;;;;;;;15.10;8.90;;;;;;;12.88;88.98;98515.17;1689635;84;25418;-63
2022/10/24 05:10:15;;;;;;;14.35;9.38;;;;;;;12.88;89.03;98511.05;1696671;84;26588;-64
2022/10/24 05:12:51;;;;;;;12.75;9.03;;;;;;;12.90;88.78;98511.50;1696773;84;25734;-64
2022/10/24 05:15:18;;;;;;;15.65;8.73;;;;;;;12.91;88.61;98515.06;1696587;83;25520;-64
2022/10/24 05:17:45;;;;;;;12.95;8.00;;;;;;;12.92;88.82;98522.16;1664043;84;45726;-64
2022/10/24 05:20:11;;;;;;;12.55;8.28;;;;;;;12.91;89.14;98526.06;1696626;83;25702;-64
2022/10/24 05:22:38;;;;;;;16.00;7.80;;;;;;;12.95;88.84;98516.00;1696503;84;27350;-65
2022/10/24 05:25:06;;;;;;;11.88;7.33;;;;;;;12.95;89.02;98509.13;1696887;83;25441;-65
2022/10/24 05:27:32;;;;;;;12.53;8.03;;;;;;;12.99;89.00;98525.78;1696976;84;25705;-65
2022/10/24 05:29:58;;;;;;;10.00;6.33;;;;;;;12.99;89.00;98525.78;1696995;84;25852;-64
2022/10/24 05:32:25;;;;;;;12.65;7.70;;;;;;;12.99;89.21;98532.09;1697270;84;25461;-64
2022/10/24 05:34:52;;;;;;;14.03;8.83;;;;;;;13.01;89.10;98530.38;1696436;84;27463;-64
2022/10/24 05:37:19;;;;;;;14.30;8.63;;;;;;;13.03;89.13;98545.97;1696851;84;25669;-64
2022/10/24 05:39:45;;;;;;;11.53;7.53;;;;;;;13.07;89.21;98548.88;1696497;84;25433;-64
2022/10/24 05:42:12;;;;;;;12.58;7.10;;;;;;;13.11;89.06;98546.50;1696819;84;25445;-64
2022/10/24 05:44:38;;;;;;;10.80;7.25;;;;;;;13.14;89.24;98547.77;1696831;84;25657;-64
2022/10/24 05:47:05;;;;;;;11.20;7.67;;;;;;;13.17;89.21;98551.23;1696511;84;29558;-64
2022/10/24 05:49:32;;;;;;;9.15;6.12;;;;;;;13.20;89.13;98565.70;1696642;83;25461;-63
2022/10/24 05:51:59;;;;;;;11.38;7.33;;;;;;;13.22;89.29;98561.23;1696486;83;25717;-63
2022/10/24 05:54:25;;;;;;;13.20;6.87;;;;;;;13.26;89.26;98562.17;1696614;84;25774;-64
2022/10/24 05:56:52;;;;;;;10.05;7.17;;;;;;;13.29;89.20;98572.51;1696632;83;25610;-65
2022/10/24 05:59:18;;;;;;;12.33;7.53;;;;;;;13.33;89.18;98563.02;1697066;83;27419;-65
2022/10/24 06:01:45;;;;;;;10.68;7.28;;;;;;;13.36;89.13;98576.91;1696617;84;25645;-65
2022/10/24 06:04:11;;;;;;;10.68;5.85;;;;;;;13.39;89.27;98587.84;1696663;84;25748;-66
2022/10/24 06:06:42;;;;;;;11.57;6.60;;;;;;;13.39;89.27;98587.84;1696466;84;25683;-66
2022/10/24 06:09:09;;;;;;;10.98;6.70;;;;;;;13.36;89.61;98581.03;1699668;83;25762;-66
2022/10/24 06:11:36;;;;;;;8.55;6.33;;;;;;;13.33;89.61;98587.23;1701269;84;28462;-66
2022/10/24 06:14:03;;;;;;;14.38;8.23;;;;;;;13.30;89.91;98583.77;1701381;84;25445;-66
2022/10/24 06:16:29;;;;;;;8.88;6.65;;;;;;;13.29;90.08;98582.14;1701670;83;25436;-66
2022/10/24 06:18:57;;;;;;;12.82;6.15;;;;;;;13.29;90.11;98586.27;1701459;84;25781;-66
2022/10/24 06:21:23;;;;;;;6.70;5.25;;;;;;;13.33;90.05;98584.48;1701282;84;25720;-66
2022/10/24 06:23:50;;;;;;;10.75;6.00;;;;;;;13.33;90.05;98584.48;1701236;84;27455;-66
2022/10/24 06:26:17;;;;;;;12.93;6.20;;;;;;;13.37;89.86;98585.98;1701230;83;25666;-66
2022/10/24 06:28:44;;;;;;;9.05;6.03;;;;;;;13.38;90.04;98576.02;1701271;84;25709;-66
2022/10/24 06:31:12;;;;;;;9.00;5.42;;;;;;;13.41;89.92;98590.48;1701200;84;25822;-66
2022/10/24 06:33:39;;;;;;;8.68;5.80;;;;;;;13.46;90.07;98577.09;1701655;84;25702;-66
2022/10/24 06:36:08;;;;;;;9.53;6.25;;;;;;;13.51;89.79;98571.98;1701689;84;28192;-66
2022/10/24 06:38:36;;;;;;;9.90;6.75;;;;;;;13.53;89.97;98576.01;1701715;84;25933;-66
2022/10/24 06:41:09;;;;;;;9.30;5.87;;;;;;;13.58;89.94;98572.25;1701497;84;25440;-66
2022/10/24 06:43:37;;;;;;;11.63;7.53;;;;;;;13.65;89.95;98579.39;1701095;84;25727;-66
2022/10/24 06:46:10;;;;;;;11.85;7.42;;;;;;;13.74;89.85;98585.41;1701330;84;25451;-66
2022/10/24 06:48:37;;;;;;;10.20;6.20;;;;;;;13.84;89.81;98594.63;1701652;83;27679;-66
2022/10/24 06:51:04;;;;;;;10.70;7.25;;;;;;;13.95;89.55;98592.27;1701174;84;25725;-66
2022/10/24 06:53:31;;;;;;;13.10;7.53;;;;;;;14.05;89.36;98587.72;1701274;84;25495;-66
2022/10/24 06:56:05;;;;;;;13.05;7.53;;;;;;;14.14;89.15;98579.95;1701462;84;26610;-64
2022/10/24 06:58:34;;;;;;;10.40;6.10;;;;;;;14.27;89.11;98569.19;1701618;84;25692;-64
2022/10/24 07:01:09;;;;;;;12.18;7.05;;;;;;;14.37;88.68;98587.82;1701541;84;27458;-64
2022/10/24 07:03:35;;;;;;;11.05;7.42;;;;;;;14.43;88.40;98582.32;1701749;84;25491;-65
2022/10/24 07:06:19;;;;;;;14.07;8.25;;;;;;;14.41;88.65;98558.41;1701579;83;25695;-64
2022/10/24 07:08:45;;;;;;;13.25;7.47;;;;;;;14.57;88.56;98561.33;1696457;83;26486;-64
2022/10/24 07:11:12;;;;;;;11.85;7.33;;;;;;;14.65;88.19;98565.12;1687666;84;25501;-64
2022/10/24 07:13:39;;;;;;;11.20;8.53;;;;;;;14.74;87.91;98567.17;1688018;84;27445;-64
2022/10/24 07:16:06;;;;;;;11.50;8.00;;;;;;;14.93;88.12;98584.58;1687535;84;25537;-64
2022/10/24 07:18:34;;;;;;;10.58;6.37;;;;;;;15.14;87.38;98586.99;1687753;84;25677;-64
2022/10/24 07:21:07;;;;;;;10.82;6.92;;;;;;;15.32;86.43;98584.78;1687603;84;25806;-64
2022/10/24 07:23:35;;;;;;;12.58;7.70;;;;;;;15.48;86.17;98591.76;1687926;85;25481;-64
2022/10/24 07:26:08;;;;;;;12.37;7.92;;;;;;;15.64;85.39;98584.95;1687661;85;27528;-63
2022/10/24 07:28:36;;;;;;;10.88;7.05;;;;;;;15.86;85.97;98575.87;1687987;85;25949;-63
2022/10/24 07:31:04;;;;;;;9.68;6.20;;;;;;;16.05;84.19;98590.46;1688123;84;25659;-63
2022/10/24 07:33:31;;;;;;;11.05;6.67;;;;;;;16.23;82.82;98583.22;1688028;84;25593;-64
2022/10/24 07:35:58;;;;;;;9.98;7.28;;;;;;;16.36;82.72;98567.37;1687898;84;25462;-64
2022/10/24 07:38:25;;;;;;;11.10;6.97;;;;;;;16.51;82.24;98572.69;1697495;83;27883;-63
2022/10/24 07:40:52;;;;;;;10.35;6.97;;;;;;;16.67;81.61;98578.22;1709349;83;25766;-63
2022/10/24 07:43:18;;;;;;;10.43;7.40;;;;;;;16.81;81.17;98593.56;1712796;83;25615;-63
2022/10/24 07:45:45;;;;;;;10.03;6.97;;;;;;;16.94;79.64;98588.75;1703365;83;26147;-64
2022/10/24 07:48:12;;;;;;;9.78;7.40;;;;;;;17.01;79.47;98586.75;1689883;83;25604;-63
2022/10/24 07:50:44;;;;;;;10.13;6.60;;;;;;;17.02;79.80;98577.27;1715783;83;27385;-64
2022/10/24 07:53:12;;;;;;;9.85;6.12;;;;;;;17.00;78.97;98558.82;1714241;83;26047;-63
2022/10/24 07:55:39;;;;;;;9.35;5.97;;;;;;;16.89;78.73;98544.73;1698069;83;26302;-63
2022/10/24 07:58:07;;;;;;;7.25;5.33;;;;;;;16.81;78.54;98542.37;1685674;84;25748;-63
2022/10/24 08:00:34;;;;;;;6.33;4.55;;;;;;;16.74;79.10;98566.53;1690331;83;25595;-63
2022/10/24 08:03:02;;;;;;;6.62;5.20;;;;;;;16.71;78.06;98553.98;1700944;83;27485;-63
2022/10/24 08:05:28;;;;;;;6.35;4.40;;;;;;;16.72;79.02;98556.40;1711970;83;25494;-64
2022/10/24 08:07:55;;;;;;;9.65;5.40;;;;;;;16.70;78.39;98544.09;1686160;84;25444;-63
2022/10/24 08:10:22;;;;;;;6.85;5.00;;;;;;;16.71;79.12;98542.34;1701948;82;25742;-63
2022/10/24 08:12:48;;;;;;;7.45;5.40;;;;;;;16.70;78.70;98551.01;1701878;82;25682;-63
2022/10/24 08:15:15;;;;;;;6.58;4.87;;;;;;;16.63;78.56;98557.97;1716690;82;27544;-63
2022/10/24 08:17:41;;;;;;;8.40;4.80;;;;;;;16.61;78.74;98552.58;1725659;82;25739;-63
2022/10/24 08:20:10;;;;;;;5.65;4.35;;;;;;;16.61;78.80;98540.13;1701802;82;26632;-63
2022/10/24 08:22:36;;;;;;;6.10;4.58;;;;;;;16.61;79.06;98529.84;1699504;84;25691;-63
2022/10/24 08:25:07;;;;;;;6.60;4.08;;;;;;;16.65;78.61;98525.22;1705449;82;25634;-63
2022/10/24 08:27:32;;;;;;;8.93;5.10;;;;;;;16.68;78.08;98523.70;1731473;82;25921;-63
2022/10/24 08:29:59;;;;;;;10.78;5.35;;;;;;;16.68;78.80;98514.83;1723238;82;25589;-63
2022/10/24 08:32:25;;;;;;;7.60;4.92;;;;;;;16.67;78.29;98509.05;1713111;82;25662;-62
2022/10/24 08:34:52;;;;;;;8.98;4.05;;;;;;;16.64;77.94;98500.08;1699256;84;25896;-63
2022/10/24 08:37:18;;;;;;;7.05;4.45;;;;;;;16.63;77.48;98497.67;1725300;82;25788;-63
2022/10/24 08:39:44;;;;;;;10.15;4.10;;;;;;;16.65;78.45;98503.66;1714510;82;27467;-63
2022/10/24 08:42:14;;;;;;;7.28;4.35;;;;;;;16.66;77.55;98507.45;1712973;82;25728;-63
2022/10/24 08:44:43;;;;;;;7.70;3.90;;;;;;;16.72;77.66;98530.71;1726477;82;25924;-63
2022/10/24 08:47:33;;;;;;;5.62;4.10;;;;;;;16.68;77.39;98522.31;1721290;82;26558;-63
2022/10/24 08:50:27;;;;;;;5.75;4.10;;;;;;;16.73;78.02;98522.63;1712185;83;25459;-63
2022/10/24 08:53:22;;;;;;;5.50;4.05;;;;;;;16.73;78.08;98514.33;1716712;83;28149;-63
2022/10/24 08:55:53;;;;;;;7.65;4.10;;;;;;;16.73;77.65;98508.79;1716736;83;25484;-63
2022/10/24 08:58:44;;;;;;;7.12;4.00;;;;;;;16.76;77.37;98503.34;1716719;83;25652;-63
2022/10/24 09:01:30;;;;;;;6.22;3.70;;;;;;;16.83;77.58;98504.08;1701320;83;27891;-63
2022/10/24 09:04:02;;;;;;;9.13;5.28;;;;;;;16.84;76.70;98493.22;1701504;84;25708;-63
2022/10/24 09:06:31;;;;;;;9.33;4.97;;;;;;;16.87;77.81;98509.11;1701308;84;27450;-63
2022/10/24 09:09:09;;;;;;;6.78;4.50;;;;;;;16.89;77.83;98533.66;1701801;83;25620;-63
2022/10/24 09:11:55;;;;;;;6.58;4.83;;;;;;;16.85;78.30;98542.47;1701530;84;26038;-63
2022/10/24 09:14:28;;;;;;;7.70;4.67;;;;;;;16.87;78.48;98545.08;1701704;84;25734;-63
2022/10/24 09:17:32;;;;;;;7.33;4.50;;;;;;;16.95;78.54;98550.81;1702022;84;25627;-62
2022/10/24 09:20:04;;;;;;;7.47;5.20;;;;;;;16.98;78.28;98553.64;1701823;84;27499;-63
2022/10/24 09:22:34;;;;;;;8.75;4.58;;;;;;;17.16;78.46;98543.01;1701714;84;25826;-63
2022/10/24 09:25:17;;;;;;;8.80;5.13;;;;;;;17.24;77.21;98526.58;1701774;84;25552;-63
2022/10/24 09:27:44;;;;;;;9.30;5.40;;;;;;;17.27;77.14;98514.77;1701593;84;25758;-63
2022/10/24 09:30:18;;;;;;;11.90;6.50;;;;;;;17.35;77.45;98515.70;1701959;84;25529;-63
2022/10/24 09:32:45;;;;;;;17.60;8.80;;;;;;;17.41;77.52;98523.37;1701368;84;29590;-63
2022/10/24 09:35:19;;;;;;;19.17;8.50;;;;;;;17.53;77.57;98522.42;1701467;84;25566;-63
2022/10/24 09:37:56;;;;;;;12.82;7.17;;;;;;;17.66;77.24;98532.80;1717805;82;25688;-63
2022/10/24 09:40:31;;;;;;;11.28;6.53;;;;;;;17.77;76.24;98529.43;1732844;82;25731;-62
2022/10/24 09:43:20;;;;;;;9.43;6.05;;;;;;;17.86;76.21;98540.28;1733278;81;25477;-63
2022/10/24 09:46:18;;;;;;;9.28;5.30;;;;;;;17.97;75.93;98543.27;1733259;82;28429;-63
2022/10/24 09:49:21;;;;;;;10.03;4.58;;;;;;;17.95;75.32;98531.16;1733003;81;25678;-63
2022/10/24 09:52:15;;;;;;;10.03;5.50;;;;;;;18.04;75.30;98530.92;1733133;82;25428;-63
2022/10/24 09:54:43;;;;;;;8.50;5.65;;;;;;;18.17;75.35;98520.50;1732868;82;27762;-63
2022/10/24 09:57:16;;;;;;;11.28;5.55;;;;;;;18.49;74.66;98514.72;1733109;81;25620;-63
2022/10/24 09:59:59;;;;;;;12.18;5.65;;;;;;;18.77;73.57;98494.12;1732933;81;27401;-63
2022/10/24 10:02:33;;;;;;;10.58;5.35;;;;;;;19.05;72.22;98497.11;1731746;82;26158;-63
2022/10/24 10:05:08;;;;;;;10.63;5.75;;;;;;;19.36;72.20;98488.81;1732860;82;25624;-62
2022/10/24 10:07:38;;;;;;;13.48;5.95;;;;;;;19.72;71.60;98489.84;1733299;82;25765;-63
2022/10/24 10:10:32;;;;;;;11.35;5.95;;;;;;;19.92;69.14;98501.55;1724513;82;25679;-62
2022/10/24 10:13:23;;;;;;;11.90;5.75;;;;;;;20.19;68.62;98510.39;1716589;83;27382;-63
2022/10/24 10:16:06;;;;;;;7.80;5.65;;;;;;;20.45;68.21;98522.55;1716151;82;25886;-62
2022/10/24 10:18:37;;;;;;;8.53;6.22;;;;;;;20.89;66.67;98522.87;1716420;83;25537;-63
2022/10/24 10:21:17;;;;;;;10.80;5.85;;;;;;;21.45;65.94;98524.24;1716605;83;26501;-63
2022/10/24 10:23:50;;;;;;;7.97;4.80;;;;;;;21.72;64.25;98511.39;1716556;83;25468;-62
2022/10/24 10:26:43;;;;;;;8.30;5.10;;;;;;;21.92;63.53;98515.26;1716689;83;28118;-61
2022/10/24 10:29:20;;;;;;;8.75;5.03;;;;;;;22.04;62.00;98507.92;1716673;83;25581;-61
2022/10/24 10:32:01;;;;;;;7.17;4.53;;;;;;;22.22;62.44;98518.91;1716285;83;25609;-63
2022/10/24 10:34:50;;;;;;;6.92;4.50;;;;;;;22.44;60.45;98521.12;1716736;83;25747;-63
2022/10/24 10:37:31;;;;;;;6.07;4.20;;;;;;;22.68;61.43;98515.36;1716776;83;25484;-63
2022/10/24 10:40:28;;;;;;;6.37;3.98;;;;;;;23.00;60.23;98514.34;1716811;83;27509;-62
2022/10/24 10:43:42;;;;;;;5.55;4.55;;;;;;;23.26;57.94;98519.27;1716276;83;25478;-62
2022/10/24 10:46:28;;;;;;;6.28;4.30;;;;;;;23.58;56.78;98515.59;1716396;83;25693;-62
2022/10/24 10:49:12;;;;;;;6.08;4.10;;;;;;;23.79;56.85;98505.48;1697896;84;26138;-63
2022/10/24 10:51:43;;;;;;;6.33;4.62;;;;;;;23.94;55.53;98509.80;1697955;84;25687;-62
2022/10/24 10:54:30;;;;;;;5.75;4.33;;;;;;;24.17;55.30;98509.09;1698110;84;27476;-63
2022/10/24 10:57:01;;;;;;;5.87;4.40;;;;;;;24.61;55.77;98515.14;1697683;84;25823;-60
2022/10/24 10:59:55;;;;;;;6.70;4.47;;;;;;;24.93;54.48;98514.09;1698126;84;25712;-61
2022/10/24 11:03:03;;;;;;;6.83;4.05;;;;;;;25.08;53.66;98504.14;1697848;84;25615;-61
2022/10/24 11:06:02;;;;;;;4.97;3.42;;;;;;;25.42;54.19;98514.56;1575958;91;25724;-60
2022/10/24 11:08:46;;;;;;;7.67;4.37;;;;;;;25.63;49.35;98517.55;1576335;91;27390;-60
2022/10/24 11:11:18;;;;;;;4.87;4.15;;;;;;;25.51;50.78;98513.27;1575921;90;25782;-61
2022/10/24 11:14:30;;;;;;;5.75;4.15;;;;;;;25.30;50.67;98510.92;1575892;91;25766;-61
2022/10/24 11:17:12;;;;;;;4.60;4.12;;;;;;;25.23;51.34;98518.80;1575875;91;27850;-60
2022/10/24 11:20:06;;;;;;;6.50;4.60;;;;;;;25.21;50.38;98524.02;1575999;91;25600;-60
2022/10/24 11:22:43;;;;;;;4.62;3.83;;;;;;;24.96;51.13;98522.29;1576057;91;28368;-60
2022/10/24 11:25:39;;;;;;;6.62;4.40;;;;;;;24.88;50.49;98530.56;1562732;91;25543;-61
2022/10/24 11:28:45;;;;;;;5.42;4.60;;;;;;;24.94;51.02;98533.11;1553425;92;25844;-61
2022/10/24 11:31:22;;;;;;;5.53;4.60;;;;;;;24.82;50.95;98534.39;1553435;92;26462;-61
2022/10/24 11:34:27;;;;;;;7.75;5.20;;;;;;;24.62;50.86;98533.56;1553109;92;25507;-61
2022/10/24 11:37:19;;;;;;;4.85;4.35;;;;;;;24.47;51.89;98532.89;1553190;92;27668;-60
2022/10/24 11:40:00;;;;;;;7.85;5.30;;;;;;;24.42;51.85;98536.92;1553347;92;25571;-61
2022/10/24 11:42:47;;;;;;;5.62;4.55;;;;;;;24.39;52.16;98548.95;1664673;83;25722;-60
2022/10/24 11:45:20;;;;;;;6.67;4.80;;;;;;;24.39;51.67;98539.73;1715640;83;25685;-60
2022/10/24 11:48:12;;;;;;;6.33;4.80;;;;;;;24.41;51.94;98540.91;1716780;83;25470;-61
2022/10/24 11:50:54;;;;;;;6.15;4.92;;;;;;;24.49;52.12;98541.66;1716409;83;27371;-61
2022/10/24 11:53:37;;;;;;;5.90;5.25;;;;;;;24.52;52.05;98537.26;1716740;83;25581;-60